Time;durP1;ratioP1;P1;durP2;ratioP2;P2;SDS_P1;SDS_P2;PMS_P1;PMS_P2;Temp;Humidity;BMP_temperature;BMP_pressure;BME280_temperature;BME280_humidity;BME280_pressure;Samples;Min_cycle;Max_cycle;Signal;HPM_P1;HPM_P2
2022/06/15 00:01:07;;;;;;;4.20;4.10;;;;;;;14.71;83.60;65726.16;5114520;28;20234;-69
2022/06/15 00:03:40;;;;;;;4.53;4.13;;;;;;;14.69;83.76;65715.53;5114533;28;20189;-69
2022/06/15 00:06:10;;;;;;;3.63;3.63;;;;;;;14.66;83.94;65720.06;5114610;28;20201;-69
2022/06/15 00:08:38;;;;;;;4.47;4.37;;;;;;;14.57;84.59;65713.78;5114250;28;20558;-69
2022/06/15 00:11:07;;;;;;;3.90;3.80;;;;;;;14.57;84.66;65713.19;5114271;28;20217;-70
2022/06/15 00:13:33;;;;;;;4.00;4.00;;;;;;;;;;5114180;28;20188;-70
2022/06/15 00:16:01;;;;;;;4.00;3.83;;;;;;;14.49;85.25;65701.69;5114136;28;20659;-70
2022/06/15 00:18:28;;;;;;;5.03;4.40;;;;;;;14.45;85.65;65700.41;5114098;28;20173;-70
2022/06/15 00:20:58;;;;;;;4.80;4.50;;;;;;;14.36;85.91;65687.22;5114036;28;20611;-70
2022/06/15 00:23:25;;;;;;;3.93;3.63;;;;;;;;;;5114367;28;20654;-70
2022/06/15 00:25:52;;;;;;;4.90;4.70;;;;;;;14.31;85.99;65682.78;5113998;28;20181;-70
2022/06/15 00:28:20;;;;;;;4.23;4.20;;;;;;;14.30;86.18;65679.06;5114584;28;20737;-70
2022/06/15 00:30:50;;;;;;;4.57;4.00;;;;;;;14.19;86.66;65668.88;5113783;28;20213;-70
2022/06/15 00:33:24;;;;;;;5.67;5.30;;;;;;;14.15;86.79;65667.59;5114197;28;20225;-70
2022/06/15 00:35:58;;;;;;;5.03;4.73;;;;;;;14.14;86.84;65660.69;5114918;28;20672;-70
2022/06/15 00:38:27;;;;;;;7.40;4.07;;;;;;;14.13;87.13;65664.81;5095662;28;20215;-70
2022/06/15 00:40:53;;;;;;;4.00;4.00;;;;;;;14.08;87.56;65656.66;5113695;28;20205;-70
2022/06/15 00:43:36;;;;;;;4.60;4.50;;;;;;;14.09;87.43;65657.75;5114038;28;20582;-70
2022/06/15 00:46:19;;;;;;;3.93;3.73;;;;;;;14.09;87.55;65657.75;5113769;28;20177;-70
2022/06/15 00:48:49;;;;;;;4.60;4.30;;;;;;;14.09;87.59;65657.75;5114050;28;20611;-70
2022/06/15 00:51:16;;;;;;;4.83;4.57;;;;;;;14.04;87.66;65663.75;5095287;28;20244;-71
2022/06/15 00:53:43;;;;;;;5.23;4.90;;;;;;;14.03;87.94;65670.47;5095470;28;20585;-71
2022/06/15 00:56:11;;;;;;;4.90;4.70;;;;;;;14.03;87.92;65651.63;5114229;28;20226;-70
2022/06/15 00:58:40;;;;;;;11.07;5.07;;;;;;;13.99;88.08;65647.72;5113639;28;20181;-70
2022/06/15 01:01:06;;;;;;;5.13;4.93;;;;;;;13.93;87.92;65641.09;5095312;28;20247;-70
2022/06/15 01:03:34;;;;;;;4.83;4.70;;;;;;;13.92;88.17;65642.56;5116470;28;20196;-70
2022/06/15 01:06:23;;;;;;;4.77;4.47;;;;;;;13.94;88.42;65644.81;5099512;28;20225;-70
2022/06/15 01:08:57;;;;;;;4.60;4.50;;;;;;;13.95;88.24;65643.31;5068777;28;20601;-70
2022/06/15 01:11:41;;;;;;;5.53;5.30;;;;;;;13.92;88.47;65650.38;5118114;28;20614;-70
2022/06/15 01:14:39;;;;;;;5.00;4.70;;;;;;;13.94;87.95;65647.41;5117932;28;20166;-70
2022/06/15 01:17:32;;;;;;;5.00;4.90;;;;;;;13.92;88.12;65639.41;5099316;28;20193;-70
2022/06/15 01:20:14;;;;;;;4.70;4.70;;;;;;;13.90;88.12;65640.34;5099287;28;20528;-70
2022/06/15 01:23:08;;;;;;;5.37;5.00;;;;;;;13.88;88.30;65640.72;5099192;28;20262;-70
2022/06/15 01:25:44;;;;;;;4.90;4.70;;;;;;;13.82;88.77;65634.06;5117770;28;20618;-70
2022/06/15 01:28:42;;;;;;;4.70;4.50;;;;;;;13.82;88.50;65634.06;5117974;28;20182;-70
2022/06/15 01:31:19;;;;;;;4.67;4.33;;;;;;;13.79;88.88;65633.34;5117381;28;20201;-70
2022/06/15 01:34:02;;;;;;;5.30;5.20;;;;;;;13.77;89.13;65626.44;5117291;28;20196;-70
2022/06/15 01:36:40;;;;;;;4.87;4.70;;;;;;;13.78;88.99;65629.59;5117504;28;20170;-69
2022/06/15 01:39:18;;;;;;;4.67;4.47;;;;;;;13.76;89.31;65619.56;5098981;28;20230;-69
2022/06/15 01:41:50;;;;;;;5.57;5.27;;;;;;;13.77;89.39;65623.28;5117072;28;20258;-70
2022/06/15 01:44:25;;;;;;;5.10;5.00;;;;;;;13.70;89.49;65615.50;5098889;28;20191;-70
2022/06/15 01:46:55;;;;;;;4.83;4.70;;;;;;;13.66;89.64;65616.84;5099602;28;20192;-70
2022/06/15 01:49:28;;;;;;;4.90;4.77;;;;;;;13.67;89.92;65617.38;5098824;28;20185;-70
2022/06/15 01:51:57;;;;;;;4.80;4.70;;;;;;;13.69;89.77;65614.38;5098620;28;20216;-70
2022/06/15 01:54:39;;;;;;;4.37;4.27;;;;;;;13.65;90.42;65609.97;5098622;28;20246;-70
2022/06/15 01:57:09;;;;;;;5.20;4.70;;;;;;;13.65;90.54;65613.13;5098847;28;20551;-70
2022/06/15 01:59:47;;;;;;;4.83;4.73;;;;;;;13.58;90.50;65604.78;5098533;28;20565;-70
2022/06/15 02:02:38;;;;;;;5.10;4.83;;;;;;;13.52;90.72;65600.72;5098201;28;20212;-70
2022/06/15 02:05:23;;;;;;;5.50;5.30;;;;;;;13.42;90.91;65595.91;5098412;28;20192;-70
2022/06/15 02:08:03;;;;;;;5.07;4.87;;;;;;;13.38;91.31;65588.88;5098295;28;20213;-70
2022/06/15 02:10:40;;;;;;;4.90;4.70;;;;;;;13.37;91.76;65579.41;5081413;28;20209;-71
2022/06/15 02:13:29;;;;;;;4.70;4.50;;;;;;;13.34;92.07;65589.63;5098111;28;20192;-71
2022/06/15 02:16:10;;;;;;;4.30;3.97;;;;;;;13.33;92.04;65585.38;5098183;28;20211;-70
2022/06/15 02:18:41;;;;;;;4.93;4.57;;;;;;;13.30;92.40;65571.63;5098693;28;20193;-70
2022/06/15 02:21:16;;;;;;;5.17;4.87;;;;;;;13.27;92.86;65565.66;5098267;28;20307;-71
2022/06/15 02:23:46;;;;;;;5.03;4.93;;;;;;;13.28;92.62;65569.38;5116316;28;20169;-71
2022/06/15 02:26:16;;;;;;;5.30;4.80;;;;;;;13.26;92.75;65567.72;5098570;28;20193;-71
2022/06/15 02:28:47;;;;;;;5.30;5.03;;;;;;;;;;5098495;28;20276;-71
2022/06/15 02:31:14;;;;;;;5.43;5.17;;;;;;;;;;5115960;28;20219;-70
2022/06/15 02:33:51;;;;;;;5.87;5.50;;;;;;;;;;5116607;28;20245;-70
2022/06/15 02:36:19;;;;;;;5.13;5.13;;;;;;;13.11;93.58;65551.03;5097758;28;20192;-70
2022/06/15 02:38:49;;;;;;;5.47;5.27;;;;;;;13.08;93.50;65553.47;5097636;28;20659;-70
2022/06/15 02:41:21;;;;;;;6.10;5.70;;;;;;;13.05;93.59;65542.31;5098184;28;20334;-71
2022/06/15 02:43:54;;;;;;;5.27;5.07;;;;;;;13.04;93.54;65551.06;5098098;28;20196;-70
2022/06/15 02:46:23;;;;;;;5.03;5.03;;;;;;;13.01;93.86;65545.69;5097615;28;20278;-70
2022/06/15 02:48:53;;;;;;;5.53;5.33;;;;;;;12.99;93.78;65535.66;5097755;28;20189;-71
2022/06/15 02:51:38;;;;;;;5.80;5.50;;;;;;;12.97;93.57;65545.91;5097411;28;20624;-70
2022/06/15 02:54:20;;;;;;;4.90;4.50;;;;;;;12.93;94.34;65537.38;5097685;28;20196;-70
2022/06/15 02:56:47;;;;;;;5.60;5.30;;;;;;;12.87;94.25;65528.09;5097384;28;20181;-70
2022/06/15 02:59:14;;;;;;;5.30;5.10;;;;;;;12.88;94.34;65534.41;5097327;28;20196;-70
2022/06/15 03:01:42;;;;;;;5.60;5.27;;;;;;;12.88;94.68;65531.25;5097229;28;20629;-70
2022/06/15 03:04:09;;;;;;;5.50;5.30;;;;;;;12.84;94.90;65532.00;5097360;28;20197;-70
2022/06/15 03:06:35;;;;;;;5.60;4.63;;;;;;;12.79;95.17;65516.63;5097128;28;20275;-70
2022/06/15 03:09:12;;;;;;;5.40;5.40;;;;;;;12.79;95.16;65516.63;5097137;28;20189;-70
2022/06/15 03:11:45;;;;;;;5.40;5.10;;;;;;;12.76;95.03;65513.28;5097810;28;20228;-70
2022/06/15 03:14:16;;;;;;;6.93;6.20;;;;;;;12.77;95.05;65514.38;5097067;28;20214;-70
2022/06/15 03:16:47;;;;;;;5.60;5.40;;;;;;;12.72;95.23;65514.03;5097043;28;20217;-70
2022/06/15 03:19:16;;;;;;;5.47;5.37;;;;;;;12.76;95.16;65512.72;5096993;28;20276;-70
2022/06/15 03:21:42;;;;;;;6.03;5.13;;;;;;;;;;5096905;28;20208;-70
2022/06/15 03:24:09;;;;;;;5.97;5.43;;;;;;;;;;5097663;28;20193;-70
2022/06/15 03:26:36;;;;;;;5.57;5.27;;;;;;;12.71;95.67;65507.16;5096204;28;20560;-70
2022/06/15 03:29:03;;;;;;;5.90;5.70;;;;;;;12.67;95.66;65500.69;5096767;28;20204;-70
2022/06/15 03:31:31;;;;;;;5.43;5.23;;;;;;;12.65;95.81;65511.47;5096579;28;20596;-70
2022/06/15 03:33:59;;;;;;;5.93;5.17;;;;;;;12.63;96.04;65506.63;5096876;28;20196;-70
2022/06/15 03:36:26;;;;;;;5.50;5.30;;;;;;;12.57;96.28;65497.94;5096558;28;20212;-70
2022/06/15 03:38:54;;;;;;;5.60;5.20;;;;;;;12.56;96.50;65496.81;5096516;28;20288;-70
2022/06/15 03:41:26;;;;;;;5.13;5.03;;;;;;;12.56;96.87;65491.06;5096956;28;20205;-70
2022/06/15 03:43:54;;;;;;;5.23;5.13;;;;;;;12.58;97.09;65499.06;5096372;28;20206;-70
2022/06/15 03:46:24;;;;;;;6.40;5.93;;;;;;;12.57;97.19;65508.34;5096423;28;20186;-70
2022/06/15 03:48:55;;;;;;;5.83;5.50;;;;;;;12.57;97.14;65494.78;5096667;28;20207;-70
2022/06/15 03:51:21;;;;;;;5.80;5.40;;;;;;;12.54;97.30;65499.25;5114412;28;20549;-71
2022/06/15 03:53:57;;;;;;;5.00;4.80;;;;;;;12.50;97.42;65489.59;5096753;28;20241;-71
2022/06/15 03:56:43;;;;;;;5.30;5.23;;;;;;;12.51;97.49;65485.53;5096341;28;20191;-70
2022/06/15 03:59:14;;;;;;;6.10;5.70;;;;;;;12.53;97.82;65487.72;5096287;28;20564;-70
2022/06/15 04:01:43;;;;;;;6.07;5.87;;;;;;;12.51;98.05;65488.13;5096232;28;20205;-70
2022/06/15 04:04:10;;;;;;;5.63;5.33;;;;;;;;;;5095934;28;20689;-70
2022/06/15 04:06:37;;;;;;;5.23;5.03;;;;;;;12.51;98.32;65493.88;5096020;28;20217;-70
2022/06/15 04:09:05;;;;;;;6.40;6.20;;;;;;;12.52;98.47;65500.19;5097130;28;20282;-70
2022/06/15 04:14:28;;;;;;;5.97;5.67;;;;;;;12.53;98.67;65490.34;5096027;28;20183;-69
2022/06/15 04:17:03;;;;;;;6.43;6.07;;;;;;;12.55;99.03;65498.31;5096214;28;20726;-69
2022/06/15 04:23:11;;;;;;;5.93;5.83;;;;;;;12.66;98.97;65504.78;5096930;28;20595;-70
2022/06/15 04:25:41;;;;;;;7.03;6.60;;;;;;;12.75;98.35;65517.38;5095698;28;20718;-69
2022/06/15 04:28:09;;;;;;;6.40;6.10;;;;;;;12.80;98.79;65528.13;5096235;28;20662;-72
2022/06/15 04:30:36;;;;;;;6.23;5.93;;;;;;;12.86;98.60;65526.44;5113819;28;20597;-70
2022/06/15 04:33:03;;;;;;;5.93;5.63;;;;;;;12.88;98.56;65526.03;5095617;28;20205;-70
2022/06/15 04:35:33;;;;;;;5.83;5.60;;;;;;;12.93;98.74;65534.75;5113861;28;20227;-70
2022/06/15 04:38:03;;;;;;;6.30;5.87;;;;;;;12.94;98.28;65533.28;5095529;28;20191;-70
2022/06/15 04:40:37;;;;;;;6.27;6.07;;;;;;;13.04;97.88;65543.25;5095721;28;20187;-70
2022/06/15 04:43:05;;;;;;;6.43;6.33;;;;;;;13.13;97.85;65558.47;5095761;28;20249;-70
2022/06/15 04:45:32;;;;;;;6.03;5.93;;;;;;;13.16;97.67;65559.75;5095389;28;20192;-70
2022/06/15 04:48:06;;;;;;;6.97;6.43;;;;;;;13.23;97.48;65569.06;5096074;28;20216;-70
2022/06/15 04:50:33;;;;;;;6.57;6.37;;;;;;;13.30;97.13;65574.78;5095511;28;20234;-70
2022/06/15 04:53:01;;;;;;;6.70;6.60;;;;;;;13.29;97.36;65573.09;5095436;28;20238;-70
2022/06/15 04:55:29;;;;;;;6.70;6.47;;;;;;;13.37;97.16;65582.56;5095443;28;20216;-69
2022/06/15 04:57:59;;;;;;;6.70;6.27;;;;;;;13.45;96.51;65588.84;5096290;28;20242;-69
2022/06/15 05:00:30;;;;;;;6.07;5.87;;;;;;;13.46;96.59;65594.59;5095296;28;20621;-70
2022/06/15 05:02:58;;;;;;;7.20;6.63;;;;;;;13.51;96.48;65594.41;5095405;28;20197;-70
2022/06/15 05:05:24;;;;;;;6.60;6.03;;;;;;;13.53;96.23;65594.56;5095306;28;20196;-70
2022/06/15 05:07:52;;;;;;;6.47;6.17;;;;;;;13.60;96.34;65607.56;5113588;28;20530;-70
2022/06/15 05:10:21;;;;;;;6.63;6.30;;;;;;;13.65;96.20;65613.13;5095180;28;20219;-70
2022/06/15 05:12:51;;;;;;;9.27;5.53;;;;;;;13.74;96.33;65625.72;5095562;28;20189;-70
2022/06/15 05:15:19;;;;;;;6.00;5.70;;;;;;;13.76;96.26;65622.16;5095209;28;20193;-70
2022/06/15 05:17:50;;;;;;;8.57;6.50;;;;;;;13.79;96.14;65630.75;5095422;28;20701;-70
2022/06/15 05:20:18;;;;;;;6.27;6.10;;;;;;;13.88;95.59;65640.72;5095475;28;20580;-70
2022/06/15 05:22:56;;;;;;;9.03;6.50;;;;;;;13.93;95.35;65638.47;5095776;28;20185;-71
2022/06/15 05:25:42;;;;;;;6.33;6.03;;;;;;;14.01;95.49;65655.19;5095444;28;20200;-70
2022/06/15 05:28:12;;;;;;;6.73;6.57;;;;;;;14.02;95.25;65656.31;5095029;28;20534;-70
2022/06/15 05:30:40;;;;;;;6.23;6.03;;;;;;;14.08;94.48;65654.03;5095540;28;20205;-70
2022/06/15 05:33:10;;;;;;;8.23;7.50;;;;;;;;;;5095299;28;20193;-69
2022/06/15 05:35:37;;;;;;;8.27;7.77;;;;;;;14.17;92.94;65666.66;5095854;28;20200;-69
2022/06/15 05:38:04;;;;;;;8.53;7.83;;;;;;;14.19;93.39;65666.25;5094974;28;20221;-69
2022/06/15 05:40:33;;;;;;;6.37;6.27;;;;;;;14.28;93.67;65678.88;5095162;28;20185;-71
2022/06/15 05:43:00;;;;;;;9.00;6.50;;;;;;;14.34;93.87;65682.94;5095223;28;20560;-70
2022/06/15 05:45:28;;;;;;;7.33;7.03;;;;;;;14.56;92.17;65709.47;5094793;28;20272;-70
2022/06/15 05:47:58;;;;;;;6.90;6.70;;;;;;;;;;5094802;28;20217;-70
2022/06/15 05:50:35;;;;;;;9.30;6.10;;;;;;;14.62;92.22;65716.16;5098765;28;20189;-69
2022/06/15 05:53:13;;;;;;;8.03;7.47;;;;;;;14.74;91.63;65734.72;5098613;28;20196;-69
2022/06/15 05:55:39;;;;;;;7.23;6.70;;;;;;;14.85;91.22;65733.34;5117431;28;20221;-70
2022/06/15 05:58:06;;;;;;;6.17;5.73;;;;;;;14.90;91.47;65744.13;5117528;28;20213;-69
2022/06/15 06:00:33;;;;;;;6.20;5.90;;;;;;;14.97;91.06;65753.97;5117206;28;20189;-70
2022/06/15 06:03:00;;;;;;;5.77;5.43;;;;;;;15.06;90.71;65767.16;5116675;28;20242;-70
2022/06/15 06:05:27;;;;;;;6.70;6.40;;;;;;;;;;5116643;28;20242;-70
2022/06/15 06:07:54;;;;;;;7.53;6.67;;;;;;;15.26;89.13;65786.25;5116626;28;20240;-70
2022/06/15 06:10:21;;;;;;;6.93;6.53;;;;;;;15.33;90.39;65803.94;5116468;28;20249;-70
2022/06/15 06:12:47;;;;;;;6.57;6.20;;;;;;;15.51;88.98;65813.53;5116442;28;20209;-70
2022/06/15 06:15:13;;;;;;;7.17;6.47;;;;;;;15.60;88.38;65820.94;5116940;28;20652;-70
2022/06/15 06:17:40;;;;;;;7.00;6.57;;;;;;;15.69;86.74;65836.22;5116424;28;20622;-69
2022/06/15 06:20:07;;;;;;;6.27;6.13;;;;;;;;;;5098044;28;20197;-69
2022/06/15 06:22:33;;;;;;;6.10;5.67;;;;;;;16.00;85.10;65863.81;5116248;28;20205;-70
2022/06/15 06:24:59;;;;;;;6.03;5.37;;;;;;;;;;5116274;28;20185;-70
2022/06/15 06:27:26;;;;;;;6.43;6.10;;;;;;;;;;5116276;28;20217;-70
2022/06/15 06:29:57;;;;;;;8.63;5.27;;;;;;;16.20;85.12;65886.09;5116374;28;20201;-70
2022/06/15 06:32:23;;;;;;;6.10;5.73;;;;;;;16.26;86.07;65897.47;5115952;28;20213;-70
2022/06/15 06:34:51;;;;;;;7.80;5.37;;;;;;;;;;5116238;28;20218;-70
2022/06/15 06:37:17;;;;;;;5.40;5.30;;;;;;;16.37;85.13;65907.66;5116067;28;20205;-70
2022/06/15 06:39:44;;;;;;;6.40;5.97;;;;;;;16.48;84.71;65919.34;5097691;28;20189;-70
2022/06/15 06:42:11;;;;;;;6.47;6.13;;;;;;;;;;5116362;28;20201;-70
2022/06/15 06:44:38;;;;;;;6.47;5.53;;;;;;;16.73;83.85;65938.81;5116095;28;20555;-70
2022/06/15 06:47:05;;;;;;;5.03;4.73;;;;;;;16.85;83.81;65960.06;5115874;28;20185;-70
2022/06/15 06:49:33;;;;;;;6.40;6.00;;;;;;;16.96;82.53;65963.91;5115791;28;20629;-70
2022/06/15 06:52:00;;;;;;;5.50;5.13;;;;;;;17.05;83.50;65979.72;5097545;28;20730;-70
2022/06/15 06:54:26;;;;;;;4.67;4.67;;;;;;;17.21;82.31;66004.31;5115725;28;20574;-70
2022/06/15 06:56:53;;;;;;;5.27;5.07;;;;;;;17.27;80.83;66006.31;5115614;28;20193;-70
2022/06/15 06:59:26;;;;;;;5.20;5.03;;;;;;;;;;5115988;28;20608;-69
2022/06/15 07:01:53;;;;;;;5.93;5.63;;;;;;;17.46;79.89;66024.31;5114986;28;20620;-70
2022/06/15 07:04:20;;;;;;;7.70;4.80;;;;;;;17.63;80.24;66042.72;5115416;28;20552;-70
2022/06/15 07:06:47;;;;;;;5.40;5.20;;;;;;;17.72;79.55;66058.03;5097994;28;20234;-70
2022/06/15 07:09:14;;;;;;;5.10;5.00;;;;;;;17.85;79.69;66069.91;5115670;28;20238;-70
2022/06/15 07:11:41;;;;;;;4.87;4.67;;;;;;;;;;5115534;28;20213;-70
2022/06/15 07:14:08;;;;;;;6.20;5.80;;;;;;;18.05;78.34;66089.03;5115601;28;20213;-70
2022/06/15 07:16:40;;;;;;;4.67;4.57;;;;;;;18.14;77.84;66098.53;5115861;28;20181;-70
2022/06/15 07:19:07;;;;;;;5.47;5.17;;;;;;;;;;5115718;28;20223;-70
2022/06/15 07:21:34;;;;;;;8.27;4.77;;;;;;;18.24;76.34;66117.00;5115694;28;20632;-70
2022/06/15 07:24:00;;;;;;;4.40;4.20;;;;;;;;;;5115143;28;20194;-70
2022/06/15 07:26:29;;;;;;;4.40;4.20;;;;;;;;;;5114944;28;20189;-70
2022/06/15 07:28:55;;;;;;;5.13;4.93;;;;;;;;;;5115042;28;20647;-70
2022/06/15 07:31:23;;;;;;;4.77;4.40;;;;;;;;;;5115137;28;20613;-70
2022/06/15 07:33:51;;;;;;;4.63;4.53;;;;;;;18.46;75.65;66135.75;5115126;28;20227;-69
2022/06/15 07:36:17;;;;;;;6.73;4.57;;;;;;;18.49;76.79;66136.47;5115414;28;20238;-70
2022/06/15 07:38:44;;;;;;;5.03;4.67;;;;;;;;;;5114830;28;20185;-70
2022/06/15 07:41:11;;;;;;;3.77;3.77;;;;;;;18.64;76.24;66153.75;5115269;28;20622;-70
2022/06/15 07:43:39;;;;;;;4.77;4.57;;;;;;;18.68;75.33;66157.69;5114713;28;20185;-70
2022/06/15 07:46:07;;;;;;;4.03;3.73;;;;;;;18.79;75.35;66169.41;5114636;28;20184;-71
2022/06/15 07:51:24;;;;;;;4.57;4.13;;;;;;;;;;5114522;28;20240;-70
2022/06/15 07:53:51;;;;;;;3.87;3.87;;;;;;;19.04;73.10;66196.78;5096755;28;20217;-71
2022/06/15 07:56:17;;;;;;;5.30;4.20;;;;;;;19.06;73.85;66199.00;5114733;28;20223;-70
2022/06/15 07:58:44;;;;;;;3.83;3.70;;;;;;;;;;5114617;28;20208;-71
2022/06/15 08:01:10;;;;;;;5.63;3.97;;;;;;;19.07;73.51;66195.41;5114701;28;20228;-70
2022/06/15 08:03:37;;;;;;;3.80;3.50;;;;;;;19.15;74.23;66209.63;5114216;28;20189;-69
2022/06/15 08:06:03;;;;;;;4.30;4.20;;;;;;;19.34;74.82;66234.97;5114865;28;20220;-69
2022/06/15 08:08:30;;;;;;;5.30;3.77;;;;;;;;;;5114246;28;20193;-70
2022/06/15 08:10:57;;;;;;;4.47;4.30;;;;;;;19.52;72.95;66249.84;5114207;28;20209;-69
2022/06/15 08:13:24;;;;;;;6.00;4.57;;;;;;;;;;5114153;28;20216;-69
2022/06/15 08:15:50;;;;;;;3.90;3.80;;;;;;;;;;5114126;28;20659;-70
2022/06/15 08:18:19;;;;;;;3.77;3.57;;;;;;;;;;5114355;28;20185;-69
2022/06/15 08:20:49;;;;;;;4.10;3.97;;;;;;;19.76;72.59;66278.75;5114000;28;20209;-69
2022/06/15 08:23:19;;;;;;;4.40;4.40;;;;;;;19.86;71.38;66287.28;5114570;28;20180;-69
2022/06/15 08:25:49;;;;;;;4.03;4.03;;;;;;;19.97;70.56;66299.56;5114216;28;20193;-69
2022/06/15 08:28:19;;;;;;;5.33;4.87;;;;;;;19.94;70.89;66298.88;5114256;28;20207;-69
2022/06/15 08:30:51;;;;;;;7.17;3.83;;;;;;;19.91;71.10;66292.31;5114388;28;20618;-70
2022/06/15 08:33:17;;;;;;;3.60;3.57;;;;;;;;;;5114318;28;20220;-69
2022/06/15 08:35:44;;;;;;;4.30;4.30;;;;;;;20.04;72.07;66301.56;5114151;28;20252;-69
2022/06/15 08:38:12;;;;;;;5.43;5.23;;;;;;;;;;5113798;28;20220;-69
2022/06/15 08:40:54;;;;;;;4.50;4.17;;;;;;;20.10;70.09;66313.00;5113677;28;20581;-70
2022/06/15 08:43:28;;;;;;;3.70;3.40;;;;;;;;;;5114068;28;20173;-70
2022/06/15 08:45:57;;;;;;;3.80;3.70;;;;;;;;;;5114345;28;20222;-70
2022/06/15 08:48:52;;;;;;;6.10;4.43;;;;;;;20.25;69.68;66330.31;5113720;28;20276;-69
2022/06/15 08:51:27;;;;;;;13.23;3.83;;;;;;;20.37;69.91;66345.81;5113801;28;20690;-69
2022/06/15 08:54:02;;;;;;;4.57;4.27;;;;;;;20.46;67.71;66352.69;5095947;28;20539;-71
2022/06/15 08:56:34;;;;;;;3.73;3.63;;;;;;;;;;5114212;28;20222;-70
2022/06/15 08:59:16;;;;;;;4.30;4.20;;;;;;;20.47;67.94;66349.09;5113682;28;20180;-69
2022/06/15 09:02:04;;;;;;;4.03;3.83;;;;;;;20.48;68.12;66350.19;5113860;28;20215;-70
2022/06/15 09:04:40;;;;;;;3.07;3.07;;;;;;;20.49;66.98;66359.22;5114455;28;20568;-70
2022/06/15 09:07:17;;;;;;;4.20;4.00;;;;;;;;;;5113881;28;20181;-70
2022/06/15 09:09:49;;;;;;;3.20;3.10;;;;;;;;;;5114233;28;20200;-69
2022/06/15 09:12:58;;;;;;;3.80;3.60;;;;;;;20.72;66.75;66384.41;5095186;28;20266;-70
2022/06/15 09:15:42;;;;;;;4.53;4.33;;;;;;;20.86;66.82;66399.50;5113791;28;20231;-69
2022/06/15 09:18:19;;;;;;;3.47;3.47;;;;;;;20.86;65.99;66399.50;5113510;28;20182;-70
2022/06/15 09:20:54;;;;;;;2.90;2.90;;;;;;;21.00;67.10;66407.22;5113916;28;20549;-70
2022/06/15 09:23:26;;;;;;;3.60;3.50;;;;;;;;;;5114062;28;20180;-70
2022/06/15 09:26:02;;;;;;;3.93;3.83;;;;;;;20.99;65.07;66410.84;5118023;28;20177;-70
2022/06/15 09:28:37;;;;;;;4.20;4.10;;;;;;;;;;5117942;28;20169;-70
2022/06/15 09:31:11;;;;;;;4.50;4.13;;;;;;;;;;5117262;28;20240;-70
2022/06/15 09:33:47;;;;;;;3.20;3.10;;;;;;;21.11;65.26;66419.53;5117552;28;20193;-69
2022/06/15 09:36:21;;;;;;;4.27;3.97;;;;;;;;;;5117550;28;20176;-69
2022/06/15 09:38:48;;;;;;;4.57;4.47;;;;;;;21.26;62.21;66435.19;5117224;28;20647;-70
2022/06/15 09:41:23;;;;;;;3.70;3.40;;;;;;;21.22;62.01;66436.56;5117268;28;20291;-70
2022/06/15 09:44:08;;;;;;;13.43;4.20;;;;;;;21.29;64.54;66444.44;5117461;28;20176;-69
2022/06/15 09:46:58;;;;;;;4.57;4.13;;;;;;;;;;5117312;28;20624;-71
2022/06/15 09:49:52;;;;;;;4.43;3.63;;;;;;;;;;5116928;28;20242;-70
2022/06/15 09:52:54;;;;;;;3.77;3.67;;;;;;;21.53;62.43;66470.72;5079329;28;20232;-70
2022/06/15 09:55:39;;;;;;;7.33;4.13;;;;;;;21.51;63.38;66467.94;5123518;27;20241;-72
2022/06/15 09:58:28;;;;;;;3.90;3.70;;;;;;;;;;5117307;27;20203;-70
2022/06/15 10:00:55;;;;;;;4.20;3.90;;;;;;;21.71;62.06;66492.94;5115391;28;20626;-70
2022/06/15 10:03:26;;;;;;;4.53;4.23;;;;;;;;;;5125321;27;20196;-71
2022/06/15 10:05:57;;;;;;;4.63;4.37;;;;;;;21.77;62.09;66502.28;5118458;27;20195;-70
2022/06/15 10:08:24;;;;;;;3.43;3.30;;;;;;;21.77;62.77;66499.09;5114612;28;20739;-71
2022/06/15 10:10:56;;;;;;;3.90;3.80;;;;;;;21.70;62.24;66484.44;5115278;28;20274;-70
2022/06/15 10:13:28;;;;;;;3.43;3.27;;;;;;;21.85;63.47;66500.13;5114075;28;20232;-70
2022/06/15 10:15:59;;;;;;;4.00;3.80;;;;;;;21.88;63.37;66508.78;5096589;28;20560;-71
2022/06/15 10:18:44;;;;;;;3.80;3.70;;;;;;;;;;5116434;27;20201;-70
2022/06/15 10:21:14;;;;;;;4.07;3.87;;;;;;;21.98;62.92;66512.59;5108492;28;20624;-70
2022/06/15 10:23:46;;;;;;;4.17;3.87;;;;;;;22.00;63.14;66524.84;5119337;27;20208;-70
2022/06/15 10:26:27;;;;;;;4.53;4.47;;;;;;;22.03;62.53;66525.56;5126530;27;20227;-70
2022/06/15 10:28:54;;;;;;;4.33;4.13;;;;;;;;;;5132637;27;20200;-70
2022/06/15 10:31:28;;;;;;;3.93;3.73;;;;;;;22.07;60.50;66524.19;5134422;27;20208;-70
2022/06/15 10:33:55;;;;;;;3.87;3.73;;;;;;;;;;5131769;27;20175;-71
2022/06/15 10:36:28;;;;;;;3.77;3.57;;;;;;;22.13;60.37;66536.75;5114262;28;20192;-71
2022/06/15 10:39:05;;;;;;;3.93;3.83;;;;;;;22.15;61.06;66541.66;5111310;27;20201;-72
2022/06/15 10:41:57;;;;;;;4.27;3.87;;;;;;;22.23;60.04;66550.06;5132658;27;20219;-71
2022/06/15 10:44:27;;;;;;;6.07;4.33;;;;;;;;;;5121364;27;20227;-70
2022/06/15 10:47:02;;;;;;;4.23;4.10;;;;;;;22.22;61.30;66546.84;5120322;27;20224;-71
2022/06/15 10:49:30;;;;;;;3.43;3.40;;;;;;;;;;5112277;27;20260;-71
2022/06/15 10:51:56;;;;;;;6.03;3.73;;;;;;;22.24;63.46;66554.38;5125734;27;20753;-70
2022/06/15 10:54:29;;;;;;;3.43;3.23;;;;;;;;;;5123333;27;20666;-71
2022/06/15 11:02:46;;;;;;;5.33;4.30;;;;;;;22.45;60.80;66574.69;5094724;28;20235;-72
2022/06/15 11:05:14;;;;;;;5.57;4.03;;;;;;;;;;5093528;28;20273;-72
2022/06/15 11:07:55;;;;;;;3.93;3.63;;;;;;;;;;5093283;28;20513;-72
2022/06/15 11:10:34;;;;;;;4.10;3.90;;;;;;;;;;5092930;28;20239;-73
2022/06/15 11:13:04;;;;;;;4.17;3.70;;;;;;;22.33;58.79;66558.03;5092997;28;20686;-73
2022/06/15 11:18:25;;;;;;;4.63;3.90;;;;;;;;;;5093025;28;20192;-72
2022/06/15 11:21:01;;;;;;;3.50;3.37;;;;;;;22.47;59.78;66573.72;5094487;28;20236;-72
2022/06/15 11:23:43;;;;;;;4.17;3.97;;;;;;;22.52;58.31;66581.97;5095009;28;20231;-71
2022/06/15 11:29:24;;;;;;;3.70;3.70;;;;;;;22.83;62.21;66613.47;5095190;28;20194;-71
2022/06/15 11:32:23;;;;;;;4.27;4.07;;;;;;;;;;5094673;28;20240;-71
2022/06/15 11:35:00;;;;;;;4.00;3.77;;;;;;;22.76;60.24;66606.19;5081513;28;20239;-71
2022/06/15 11:37:34;;;;;;;3.40;3.30;;;;;;;22.79;57.50;66609.56;5095292;28;20572;-70
2022/06/15 11:40:06;;;;;;;4.80;3.83;;;;;;;;;;5094474;28;20173;-70
2022/06/15 11:42:32;;;;;;;5.23;3.60;;;;;;;22.89;57.04;66622.31;5094618;28;20206;-71
2022/06/15 11:44:59;;;;;;;3.87;3.47;;;;;;;22.98;58.36;66624.44;5094421;28;20185;-70
2022/06/15 11:47:52;;;;;;;3.63;3.37;;;;;;;23.06;56.65;66638.72;5093803;28;20216;-70
2022/06/15 11:50:19;;;;;;;4.83;3.37;;;;;;;23.15;56.32;66643.50;5094505;28;20182;-70
2022/06/15 11:53:01;;;;;;;3.40;3.20;;;;;;;23.17;57.12;66650.47;5094343;28;20248;-71
2022/06/15 11:55:27;;;;;;;2.60;2.57;;;;;;;;;;5094530;28;20575;-70
2022/06/15 11:58:02;;;;;;;3.73;3.63;;;;;;;;;;5094198;28;20189;-71
2022/06/15 12:00:59;;;;;;;4.10;4.00;;;;;;;23.33;57.73;66668.97;5094435;28;20194;-72
2022/06/15 12:03:38;;;;;;;3.30;3.20;;;;;;;23.34;57.95;66672.72;5097588;27;20618;-72
2022/06/15 12:06:06;;;;;;;5.17;3.73;;;;;;;;;;5119999;27;20280;-71
2022/06/15 12:08:51;;;;;;;3.20;3.20;;;;;;;23.31;56.14;66674.69;5127243;27;20308;-71
2022/06/15 12:14:49;;;;;;;3.10;3.10;;;;;;;23.36;56.13;66666.47;5134822;27;20230;-70
2022/06/15 12:17:29;;;;;;;3.33;3.33;;;;;;;23.45;56.40;66681.31;5135232;27;20175;-71
2022/06/15 12:20:14;;;;;;;3.70;3.70;;;;;;;23.50;58.98;66692.19;5134941;27;20506;-71
2022/06/15 12:23:02;;;;;;;3.50;3.40;;;;;;;23.51;56.44;66690.69;5134529;27;20694;-71
2022/06/15 12:25:41;;;;;;;3.27;3.07;;;;;;;23.66;58.39;66704.88;5135185;27;20173;-71
2022/06/15 12:28:25;;;;;;;12.60;3.83;;;;;;;23.62;56.59;66703.03;5134567;27;20185;-71
2022/06/15 12:30:51;;;;;;;3.07;3.07;;;;;;;;;;5134990;27;20275;-72
2022/06/15 12:33:23;;;;;;;3.63;3.53;;;;;;;;;;5134324;27;20682;-71
2022/06/15 12:36:03;;;;;;;4.03;3.83;;;;;;;23.83;54.49;66723.34;5134699;27;20200;-71
2022/06/15 12:38:50;;;;;;;4.10;3.80;;;;;;;23.91;57.39;66734.41;5134444;27;20233;-71
2022/06/15 12:44:23;;;;;;;3.55;3.47;;;;;;;23.97;55.11;66731.09;5120550;27;20192;-71
2022/06/15 12:46:51;;;;;;;3.13;3.03;;;;;;;23.92;55.14;66732.88;5094602;28;20188;-72
2022/06/15 12:49:49;;;;;;;3.22;3.17;;;;;;;23.95;55.28;66736.25;5112674;28;20216;-73
2022/06/15 12:52:26;;;;;;;3.05;2.90;;;;;;;24.03;54.36;66745.22;5112003;28;20205;-71
2022/06/15 12:54:52;;;;;;;3.50;3.30;;;;;;;;;;5113361;28;20588;-70
2022/06/15 12:57:33;;;;;;;3.17;3.17;;;;;;;24.06;53.45;66751.22;5112401;28;20667;-71
2022/06/15 13:00:24;;;;;;;2.90;2.83;;;;;;;24.06;53.37;66751.78;5117201;28;20169;-70